createdAt,value
2018-08-19T00:01:46.336Z,20.00
2018-08-19T00:04:16.244Z,21.17
2018-08-19T00:06:47.188Z,18.73
2018-08-19T00:09:18.020Z,19.17
2018-08-19T00:11:48.609Z,18.83
2018-08-19T00:14:29.914Z,18.77
2018-08-19T00:17:01.185Z,21.57
2018-08-19T00:19:32.772Z,20.37
2018-08-19T00:22:04.089Z,22.73
2018-08-19T00:24:34.853Z,24.93
2018-08-19T00:27:05.160Z,21.40
2018-08-19T00:29:38.180Z,20.37
2018-08-19T00:32:11.353Z,22.73
2018-08-19T00:34:41.924Z,18.63
2018-08-19T00:37:13.013Z,22.30
2018-08-19T00:39:43.184Z,25.17
2018-08-19T00:42:13.844Z,17.87
2018-08-19T00:44:45.664Z,19.07
2018-08-19T00:47:15.901Z,18.40
2018-08-19T00:49:46.640Z,23.63
2018-08-19T00:52:18.223Z,15.93
2018-08-19T00:54:49.278Z,15.67
2018-08-19T00:57:19.165Z,20.00
2018-08-19T00:59:49.698Z,14.93
2018-08-19T01:02:20.957Z,14.07
2018-08-19T01:04:51.413Z,18.63
2018-08-19T01:07:22.014Z,14.97
2018-08-19T01:09:53.109Z,13.77
2018-08-19T01:12:25.224Z,14.63
2018-08-19T01:14:55.501Z,16.90
2018-08-19T01:17:30.556Z,13.50
2018-08-19T01:20:05.873Z,12.43
2018-08-19T01:22:38.166Z,13.93
2018-08-19T01:25:09.272Z,12.60
2018-08-19T01:27:40.579Z,11.20
2018-08-19T01:30:18.069Z,14.70
2018-08-19T01:32:48.788Z,14.07
2018-08-19T01:35:21.887Z,11.90
2018-08-19T01:37:52.067Z,15.30
2018-08-19T01:40:22.039Z,16.13
2018-08-19T01:42:52.272Z,13.17
2018-08-19T01:45:22.510Z,11.80
2018-08-19T01:47:52.426Z,14.23
2018-08-19T01:50:22.325Z,12.70
2018-08-19T01:52:52.584Z,12.97
2018-08-19T01:55:23.283Z,15.43
2018-08-19T01:57:53.768Z,14.57
2018-08-19T02:00:24.498Z,14.33
2018-08-19T02:03:05.795Z,14.80
2018-08-19T02:05:36.700Z,16.50
2018-08-19T02:08:06.908Z,17.93
2018-08-19T02:10:36.869Z,14.17
2018-08-19T02:13:07.417Z,17.70
2018-08-19T02:15:37.431Z,13.97
2018-08-19T02:18:07.454Z,15.80
2018-08-19T02:20:39.290Z,14.80
2018-08-19T02:23:11.635Z,18.30
2018-08-19T02:25:46.679Z,16.00
2018-08-19T02:28:22.289Z,15.87
2018-08-19T02:30:57.145Z,20.07
2018-08-19T02:33:27.404Z,16.67
2018-08-19T02:36:05.437Z,19.67
2018-08-19T02:38:36.363Z,20.90
2018-08-19T02:41:06.990Z,20.53
2018-08-19T02:43:45.368Z,18.17
2018-08-19T02:46:15.382Z,22.43
2018-08-19T02:48:51.545Z,20.47
2018-08-19T02:51:21.948Z,17.70
2018-08-19T02:53:52.823Z,20.67
2018-08-19T02:56:23.020Z,18.70
2018-08-19T02:58:53.011Z,19.43
2018-08-19T03:01:23.617Z,18.90
2018-08-19T03:03:53.771Z,20.70
2018-08-19T03:06:23.664Z,18.57
2018-08-19T03:09:00.479Z,23.20
2018-08-19T03:11:30.447Z,20.10
2018-08-19T03:14:00.893Z,18.27
2018-08-19T03:16:31.961Z,22.57
2018-08-19T03:19:02.274Z,26.23
2018-08-19T03:21:32.164Z,21.43
2018-08-19T03:24:02.124Z,21.10
2018-08-19T03:26:32.434Z,21.97
2018-08-19T03:29:07.425Z,19.57
2018-08-19T03:31:37.925Z,20.80
2018-08-19T03:34:07.830Z,23.57
2018-08-19T03:36:39.036Z,17.07
2018-08-19T03:39:25.181Z,18.80
2018-08-19T03:41:55.283Z,21.40
2018-08-19T03:44:26.652Z,17.80
2018-08-19T03:46:57.485Z,19.27
2018-08-19T03:49:27.576Z,17.60
2018-08-19T03:51:57.920Z,16.80
2018-08-19T03:54:28.429Z,15.90
2018-08-19T03:56:58.361Z,14.60
2018-08-19T03:59:29.156Z,16.57
2018-08-19T04:01:59.518Z,18.30
2018-08-19T04:04:30.021Z,18.77
2018-08-19T04:07:00.268Z,18.13
2018-08-19T04:09:30.501Z,18.03
2018-08-19T04:12:15.046Z,19.30
2018-08-19T04:14:46.021Z,16.20
2018-08-19T04:17:16.232Z,15.70
2018-08-19T04:19:46.612Z,16.43
2018-08-19T04:22:16.817Z,18.87
2018-08-19T04:24:46.953Z,17.63
2018-08-19T04:27:17.057Z,15.47
2018-08-19T04:29:47.052Z,14.33
2018-08-19T04:32:25.157Z,18.50
2018-08-19T04:34:55.202Z,16.77
2018-08-19T04:37:25.816Z,13.00
2018-08-19T04:39:55.902Z,15.63
2018-08-19T04:42:26.555Z,15.57
2018-08-19T04:44:57.006Z,20.13
2018-08-19T04:47:31.503Z,15.13
2018-08-19T04:50:01.653Z,16.80
2018-08-19T04:52:33.996Z,15.70
2018-08-19T04:55:04.004Z,15.83
2018-08-19T04:57:33.945Z,18.90
2018-08-19T05:00:04.059Z,17.03
2018-08-19T05:02:34.601Z,15.70
2018-08-19T05:05:04.755Z,17.93
2018-08-19T05:07:34.678Z,16.00
2018-08-19T05:10:04.853Z,17.87
2018-08-19T05:12:35.135Z,15.83
2018-08-19T05:15:05.701Z,16.13
2018-08-19T05:17:35.751Z,16.43
2018-08-19T05:20:14.069Z,17.03
2018-08-19T05:22:45.153Z,15.67
2018-08-19T05:25:15.757Z,14.63
2018-08-19T05:27:47.817Z,13.57
2018-08-19T05:30:17.763Z,13.93
2018-08-19T05:32:52.987Z,17.47
2018-08-19T05:35:23.212Z,15.90
2018-08-19T05:37:53.386Z,16.73
2018-08-19T05:40:23.777Z,13.13
2018-08-19T05:42:53.719Z,15.87
2018-08-19T05:45:23.935Z,15.03
2018-08-19T05:48:04.729Z,17.83
2018-08-19T05:50:35.160Z,15.87
2018-08-19T05:53:05.349Z,14.47
2018-08-19T05:55:35.937Z,16.33
2018-08-19T05:58:06.000Z,15.13
2018-08-19T06:00:36.397Z,36.23
2018-08-19T06:03:06.801Z,17.33
2018-08-19T06:05:36.764Z,13.67
2018-08-19T06:08:13.463Z,19.60
2018-08-19T06:10:43.644Z,18.33
2018-08-19T06:13:13.887Z,16.33
2018-08-19T06:15:43.945Z,17.67
2018-08-19T06:18:14.930Z,15.47
2018-08-19T06:20:45.538Z,15.70
2018-08-19T06:23:15.790Z,17.53
2018-08-19T06:25:45.773Z,17.10
2018-08-19T06:28:16.337Z,17.60
2018-08-19T06:30:46.308Z,18.17
2018-08-19T06:33:17.277Z,15.97
2018-08-19T06:35:47.209Z,15.27
2018-08-19T06:38:17.121Z,20.23
2018-08-19T06:40:47.504Z,22.73
2018-08-19T06:43:18.042Z,16.80
2018-08-19T06:45:48.240Z,15.83
2018-08-19T06:48:19.622Z,16.73
2018-08-19T06:50:49.669Z,18.43
2018-08-19T06:53:24.475Z,18.77
2018-08-19T06:55:54.726Z,18.90
2018-08-19T06:58:25.724Z,16.87
2018-08-19T07:00:55.833Z,16.00
2018-08-19T07:03:27.158Z,17.57
2018-08-19T07:06:12.049Z,15.57
2018-08-19T07:08:41.966Z,15.67
2018-08-19T07:11:12.507Z,16.80
2018-08-19T07:13:42.521Z,17.70
2018-08-19T07:16:13.329Z,13.43
2018-08-19T07:18:43.370Z,15.83
2018-08-19T07:21:13.698Z,19.63
2018-08-19T07:23:44.488Z,17.83
2018-08-19T07:26:14.552Z,18.43
2018-08-19T07:28:45.099Z,19.10
2018-08-19T07:31:15.064Z,22.43
2018-08-19T07:33:46.426Z,18.60
2018-08-19T07:36:17.594Z,20.80
2018-08-19T07:38:48.672Z,23.73
2018-08-19T07:41:19.801Z,21.40
2018-08-19T07:43:49.764Z,17.30
2018-08-19T07:46:20.400Z,18.90
2018-08-19T07:48:51.017Z,17.93
2018-08-19T07:51:20.976Z,21.23
2018-08-19T07:53:50.873Z,19.30
2018-08-19T07:56:21.368Z,17.23
2018-08-19T07:58:59.162Z,21.63
2018-08-19T08:01:30.065Z,20.80
2018-08-19T08:04:00.192Z,15.97
2018-08-19T08:06:32.814Z,14.60
2018-08-19T08:09:05.456Z,18.20
2018-08-19T08:11:35.952Z,18.03
2018-08-19T08:14:06.846Z,23.63
2018-08-19T08:16:43.025Z,16.77
2018-08-19T08:19:12.886Z,19.33
2018-08-19T08:21:43.458Z,16.47
2018-08-19T08:24:13.394Z,19.13
2018-08-19T08:26:48.409Z,17.90
2018-08-19T08:29:19.202Z,15.90
2018-08-19T08:31:53.982Z,14.90
2018-08-19T08:34:24.134Z,15.30
2018-08-19T08:36:58.709Z,15.73
2018-08-19T08:39:30.042Z,15.93
2018-08-19T08:42:00.596Z,16.57
2018-08-19T08:44:30.804Z,18.37
2018-08-19T08:47:04.968Z,15.27
2018-08-19T08:49:40.237Z,15.87
2018-08-19T08:52:16.282Z,15.10
2018-08-19T08:54:51.612Z,15.43
2018-08-19T08:57:23.268Z,16.20
2018-08-19T08:59:54.024Z,13.10
2018-08-19T09:02:25.429Z,19.90
2018-08-19T09:04:56.470Z,15.27
2018-08-19T09:07:28.244Z,15.93
2018-08-19T09:09:59.809Z,16.60
2018-08-19T09:12:40.280Z,20.57
2018-08-19T09:15:10.282Z,15.57
2018-08-19T09:17:40.198Z,21.63
2018-08-19T09:20:11.164Z,22.53
2018-08-19T09:22:43.849Z,18.10
2018-08-19T09:25:14.810Z,18.00
2018-08-19T09:27:45.121Z,19.00
2018-08-19T09:30:19.584Z,19.50
2018-08-19T09:33:07.292Z,17.70
2018-08-19T09:35:38.462Z,20.03
2018-08-19T09:38:17.145Z,21.03
2018-08-19T09:40:47.313Z,24.07
2018-08-19T09:43:17.429Z,20.37
2018-08-19T09:45:48.908Z,18.80
2018-08-19T09:48:19.225Z,22.87
2018-08-19T09:50:49.118Z,22.57
2018-08-19T09:53:19.169Z,22.97
2018-08-19T09:55:56.335Z,21.77
2018-08-19T09:58:27.527Z,21.93
2018-08-19T10:01:02.811Z,22.13
2018-08-19T10:03:33.409Z,19.90
2018-08-19T10:06:03.357Z,21.37
2018-08-19T10:08:33.967Z,18.07
2018-08-19T10:11:05.985Z,21.23
2018-08-19T10:13:36.340Z,24.27
2018-08-19T10:20:38.452Z,23.10
2018-08-19T10:23:11.394Z,20.77
2018-08-19T10:25:47.554Z,19.87
2018-08-19T10:28:18.726Z,21.67
2018-08-19T10:30:56.212Z,20.47
2018-08-19T10:33:36.872Z,22.13
2018-08-19T10:36:07.386Z,18.87
2018-08-19T10:38:37.940Z,19.20
2018-08-19T10:41:09.101Z,18.07
2018-08-19T10:43:41.009Z,18.73
2018-08-19T10:46:11.408Z,15.17
2018-08-19T10:48:41.809Z,19.33
2018-08-19T10:51:11.693Z,14.40
2018-08-19T10:53:45.324Z,19.20
2018-08-19T10:56:16.649Z,15.13
2018-08-19T10:58:51.732Z,17.10
2018-08-19T11:01:24.996Z,15.33
2018-08-19T11:03:55.653Z,14.97
2018-08-19T11:06:25.774Z,14.10
2018-08-19T11:08:57.982Z,15.97
2018-08-19T11:11:35.349Z,13.57
2018-08-19T11:14:18.107Z,16.83
2018-08-19T11:16:49.236Z,16.37
2018-08-19T11:19:20.372Z,17.80
2018-08-19T11:21:59.261Z,15.90
2018-08-19T11:24:31.794Z,11.23
2018-08-19T11:27:05.516Z,14.70
2018-08-19T11:29:39.185Z,12.53
2018-08-19T11:32:10.765Z,14.20
2018-08-19T11:34:40.640Z,11.93
2018-08-19T11:37:10.609Z,15.97
2018-08-19T11:39:45.068Z,14.27
2018-08-19T11:42:15.436Z,13.43
2018-08-19T11:44:46.753Z,14.37
2018-08-19T11:47:16.832Z,12.83
2018-08-19T11:49:47.988Z,13.07
2018-08-19T11:52:18.244Z,10.07
2018-08-19T11:54:48.696Z,10.87
2018-08-19T11:57:18.589Z,15.47
2018-08-19T11:59:50.192Z,9.77
2018-08-19T12:02:24.367Z,13.73
2018-08-19T12:04:55.652Z,12.63
2018-08-19T12:07:26.468Z,13.23
2018-08-19T12:10:01.166Z,11.37
2018-08-19T12:12:47.948Z,14.03
2018-08-19T12:15:19.809Z,10.73
2018-08-19T12:17:50.778Z,11.40
2018-08-19T12:20:26.730Z,14.67
2018-08-19T12:22:57.628Z,13.77
2018-08-19T12:25:27.618Z,10.80
2018-08-19T12:27:58.865Z,11.47
2018-08-19T12:30:33.128Z,13.57
2018-08-19T12:33:14.114Z,15.17
2018-08-19T12:35:45.521Z,15.83
2018-08-19T12:38:16.329Z,11.77
2018-08-19T12:40:50.321Z,14.37
2018-08-19T12:43:20.737Z,16.37
2018-08-19T12:45:50.880Z,14.57
2018-08-19T12:48:21.512Z,14.67
2018-08-19T12:51:10.364Z,13.47
2018-08-19T12:53:41.085Z,14.80
2018-08-19T12:56:11.336Z,15.53
2018-08-19T13:05:56.251Z,11.53
2018-08-19T13:08:28.416Z,11.17
2018-08-19T13:11:01.706Z,13.43
2018-08-19T13:13:32.941Z,9.77
2018-08-19T13:16:03.726Z,15.10
2018-08-19T13:18:42.800Z,12.63
2018-08-19T13:21:16.525Z,11.27
2018-08-19T13:23:47.128Z,12.40
2018-08-19T13:26:18.106Z,14.00
2018-08-19T13:28:51.793Z,15.07
2018-08-19T13:31:26.428Z,11.80
2018-08-19T13:33:56.689Z,13.27
2018-08-19T13:36:27.116Z,11.10
2018-08-19T13:38:57.412Z,13.63
2018-08-19T13:41:27.778Z,10.90
2018-08-19T13:43:57.853Z,13.70
2018-08-19T13:46:28.416Z,9.37
2018-08-19T13:48:58.446Z,13.93
2018-08-19T13:51:28.364Z,10.80
2018-08-19T13:53:58.453Z,9.93
2018-08-19T13:56:30.524Z,9.43
2018-08-19T13:59:00.506Z,10.63
2018-08-19T14:01:31.172Z,11.10
2018-08-19T14:04:01.084Z,10.33
2018-08-19T14:06:31.002Z,11.23
2018-08-19T14:09:00.914Z,11.30
2018-08-19T14:11:32.537Z,11.40
2018-08-19T14:14:02.441Z,11.27
2018-08-19T14:16:34.493Z,10.13
2018-08-19T14:19:06.129Z,12.47
2018-08-19T14:21:37.033Z,10.17
2018-08-19T14:24:07.268Z,10.10
2018-08-19T14:26:38.523Z,12.30
2018-08-19T14:29:08.464Z,11.77
2018-08-19T14:31:38.682Z,8.87
2018-08-19T14:34:08.621Z,9.67
2018-08-19T14:36:38.598Z,14.03
2018-08-19T14:39:08.549Z,11.07
2018-08-19T14:41:38.805Z,9.23
2018-08-19T14:44:08.850Z,7.30
2018-08-19T14:46:38.765Z,10.70
2018-08-19T14:49:10.526Z,8.07
2018-08-19T14:51:50.101Z,11.23
2018-08-19T14:54:20.555Z,8.10
2018-08-19T14:56:51.408Z,10.40
2018-08-19T14:59:22.392Z,8.63
2018-08-19T15:01:52.565Z,8.97
2018-08-19T15:04:23.097Z,9.67
2018-08-19T15:06:53.073Z,6.40
2018-08-19T15:09:32.308Z,9.90
2018-08-19T15:12:15.975Z,10.73
2018-08-19T15:14:46.220Z,8.57
2018-08-19T15:17:16.712Z,9.43
2018-08-19T15:19:49.370Z,7.70
2018-08-19T15:22:19.909Z,8.73
2018-08-19T15:24:50.388Z,11.30
2018-08-19T15:27:20.789Z,7.20
2018-08-19T15:29:52.368Z,8.53
2018-08-19T15:32:25.389Z,7.47
2018-08-19T15:34:55.245Z,8.60
2018-08-19T15:37:26.579Z,7.30
2018-08-19T15:39:56.937Z,6.90
2018-08-19T15:42:27.130Z,9.00
2018-08-19T15:44:57.234Z,8.43
2018-08-19T15:47:27.460Z,8.73
2018-08-19T15:50:10.132Z,7.07
2018-08-19T15:52:40.205Z,6.67
2018-08-19T15:55:10.417Z,9.23
2018-08-19T15:57:40.665Z,7.37
2018-08-19T16:00:11.209Z,8.40
2018-08-19T16:02:42.470Z,8.93
2018-08-19T16:05:15.910Z,9.00
2018-08-19T16:07:46.922Z,6.83
2018-08-19T16:10:17.944Z,8.53
2018-08-19T16:12:52.085Z,8.10
2018-08-19T16:15:26.352Z,7.67
2018-08-19T16:17:57.425Z,8.17
2018-08-19T16:20:27.378Z,9.80
2018-08-19T16:22:58.141Z,8.33
2018-08-19T16:25:28.772Z,8.77
2018-08-19T16:27:59.300Z,10.23
2018-08-19T16:30:29.219Z,8.37
2018-08-19T16:32:59.546Z,8.23
2018-08-19T16:35:29.923Z,11.67
2018-08-19T16:38:01.486Z,7.37
2018-08-19T16:40:32.111Z,7.00
2018-08-19T16:43:02.080Z,6.60
2018-08-19T16:45:32.317Z,6.63
2018-08-19T16:48:03.234Z,8.20
2018-08-19T16:50:33.348Z,8.23
2018-08-19T16:53:03.773Z,8.23
2018-08-19T16:55:34.186Z,9.97
2018-08-19T16:58:04.215Z,9.37
2018-08-19T17:00:34.494Z,8.50
2018-08-19T17:03:18.306Z,8.60
2018-08-19T17:05:48.221Z,8.00
2018-08-19T17:08:19.519Z,8.80
2018-08-19T17:10:49.437Z,8.30
2018-08-19T17:13:19.353Z,10.13
2018-08-19T17:15:49.951Z,9.40
2018-08-19T17:18:20.449Z,9.67
2018-08-19T17:20:50.865Z,9.83
2018-08-19T17:23:22.555Z,9.60
2018-08-19T17:25:53.649Z,9.73
2018-08-19T17:28:25.269Z,11.43
2018-08-19T17:30:55.834Z,10.47
2018-08-19T17:33:36.043Z,10.30
2018-08-19T17:36:06.090Z,8.87
2018-08-19T17:38:36.898Z,8.80
2018-08-19T17:41:07.454Z,10.00
2018-08-19T17:43:42.265Z,9.77
2018-08-19T17:46:14.018Z,12.97
2018-08-19T17:48:46.091Z,13.63
2018-08-19T17:51:27.729Z,11.67
2018-08-19T17:53:58.028Z,11.73
2018-08-19T17:56:28.429Z,10.77
2018-08-19T17:58:58.965Z,11.57
2018-08-19T18:01:45.242Z,9.07
2018-08-19T18:04:17.712Z,9.27
2018-08-19T18:06:48.006Z,12.13
2018-08-19T18:09:18.903Z,12.40
2018-08-19T18:11:59.542Z,10.83
2018-08-19T18:14:30.774Z,13.70
2018-08-19T18:17:01.161Z,16.37
2018-08-19T18:19:36.221Z,13.77
2018-08-19T18:22:06.535Z,11.97
2018-08-19T18:24:44.828Z,15.77
2018-08-19T18:27:15.290Z,14.80
2018-08-19T18:29:46.949Z,12.77
2018-08-19T18:32:24.636Z,17.33
2018-08-19T18:34:55.683Z,12.90
2018-08-19T18:37:30.863Z,13.23
2018-08-19T18:40:02.674Z,15.03
2018-08-19T18:42:44.990Z,13.37
2018-08-19T18:45:15.655Z,18.27
2018-08-19T18:47:51.894Z,12.90
2018-08-19T18:50:26.934Z,18.97
2018-08-19T18:52:57.419Z,16.13
2018-08-19T18:55:27.490Z,15.67
2018-08-19T18:57:58.298Z,15.73
2018-08-19T19:00:28.905Z,14.10
2018-08-19T19:03:01.717Z,14.27
2018-08-19T19:05:37.520Z,14.93
2018-08-19T19:08:18.022Z,17.47
2018-08-19T19:11:01.374Z,14.33
2018-08-19T19:13:31.314Z,15.03
2018-08-19T19:16:01.330Z,13.40
2018-08-19T19:18:33.268Z,13.97
2018-08-19T19:21:06.747Z,12.97
2018-08-19T19:23:41.533Z,10.50
2018-08-19T19:26:16.714Z,14.90
2018-08-19T19:28:48.147Z,11.63
2018-08-19T19:31:18.993Z,10.97
2018-08-19T19:33:49.878Z,9.80
2018-08-19T19:36:22.249Z,8.37
2018-08-19T19:38:59.982Z,9.97
2018-08-19T19:41:33.994Z,10.40
2018-08-19T19:44:19.933Z,11.20
2018-08-19T19:46:51.283Z,8.90
2018-08-19T19:49:22.878Z,8.53
2018-08-19T19:52:07.799Z,10.03
2018-08-19T19:54:39.146Z,10.97
2018-08-19T19:57:10.109Z,10.40
2018-08-19T19:59:42.778Z,11.40
2018-08-19T20:02:19.735Z,10.47
2018-08-19T20:04:50.947Z,10.03
2018-08-19T20:07:22.306Z,8.50
2018-08-19T20:09:54.402Z,9.20
2018-08-19T20:12:28.447Z,7.97
2018-08-19T20:15:01.327Z,7.50
2018-08-19T20:17:33.362Z,6.80
2018-08-19T20:20:04.371Z,9.13
2018-08-19T20:22:37.011Z,7.20
2018-08-19T20:28:28.934Z,9.67
2018-08-19T20:33:45.929Z,7.33
2018-08-19T20:36:21.584Z,6.70
2018-08-19T20:38:52.174Z,8.90
2018-08-19T20:41:37.194Z,11.40
2018-08-19T20:44:09.676Z,7.40
2018-08-19T20:46:43.906Z,8.50
2018-08-19T20:49:15.808Z,9.63
2018-08-19T20:51:49.207Z,7.83
2018-08-19T20:54:20.024Z,7.17
2018-08-19T20:56:51.350Z,7.50
2018-08-19T20:59:38.128Z,9.47
2018-08-19T21:02:09.786Z,7.83
2018-08-19T21:04:40.204Z,7.47
2018-08-19T21:07:10.536Z,6.50
2018-08-19T21:09:42.049Z,7.87
2018-08-19T21:12:12.342Z,10.20
2018-08-19T21:14:49.235Z,6.50
2018-08-19T21:17:19.249Z,6.93
2018-08-19T21:19:50.028Z,7.50
2018-08-19T21:22:20.513Z,6.60
2018-08-19T21:24:50.418Z,7.77
2018-08-19T21:27:20.706Z,8.27
2018-08-19T21:29:50.703Z,6.57
2018-08-19T21:32:21.105Z,9.77
2018-08-19T21:34:51.120Z,9.30
2018-08-19T21:37:34.928Z,8.93
2018-08-19T21:40:06.178Z,8.63
2018-08-19T21:42:48.118Z,10.53
2018-08-19T21:45:17.963Z,8.10
2018-08-19T21:47:47.865Z,8.20
2018-08-19T21:50:17.751Z,7.17
2018-08-19T21:52:59.341Z,8.30
2018-08-19T21:55:32.694Z,8.03
2018-08-19T21:58:03.090Z,7.13
2018-08-19T22:00:36.758Z,8.07
2018-08-19T22:03:14.523Z,8.57
2018-08-19T22:05:45.246Z,11.30
2018-08-19T22:08:15.406Z,7.77
2018-08-19T22:10:47.118Z,8.73
2018-08-19T22:13:17.106Z,9.73
2018-08-19T22:15:47.714Z,7.27
2018-08-19T22:18:19.113Z,8.97
2018-08-19T22:21:03.625Z,8.37
2018-08-19T22:23:38.462Z,8.67
2018-08-19T22:26:09.477Z,7.00
2018-08-19T22:28:40.176Z,12.37
2018-08-19T22:31:21.630Z,9.10
2018-08-19T22:33:54.897Z,12.00
2018-08-19T22:36:24.901Z,9.20
2018-08-19T22:38:55.701Z,11.47
2018-08-19T22:41:28.361Z,10.67
2018-08-19T22:43:58.918Z,10.33
2018-08-19T22:46:29.188Z,10.27
2018-08-19T22:48:59.879Z,10.60
2018-08-19T22:51:33.178Z,11.10
2018-08-19T22:54:03.049Z,10.50
2018-08-19T22:56:33.182Z,8.97
2018-08-19T22:59:03.101Z,10.87
2018-08-19T23:01:38.197Z,10.50
2018-08-19T23:04:08.444Z,10.47
2018-08-19T23:06:38.513Z,12.00
2018-08-19T23:09:08.826Z,9.33
2018-08-19T23:11:43.998Z,14.67
2018-08-19T23:14:25.337Z,12.07
2018-08-19T23:16:55.805Z,11.30
2018-08-19T23:19:26.617Z,12.93
2018-08-19T23:21:56.633Z,12.73
2018-08-19T23:24:26.678Z,12.83
2018-08-19T23:26:56.547Z,12.63
2018-08-19T23:29:26.625Z,11.67
2018-08-19T23:31:56.492Z,12.93
2018-08-19T23:34:27.873Z,11.17
2018-08-19T23:36:57.754Z,12.60
2018-08-19T23:39:27.633Z,13.43
2018-08-19T23:41:57.930Z,11.80
2018-08-19T23:44:27.813Z,12.97
2018-08-19T23:46:57.819Z,15.33
2018-08-19T23:49:28.493Z,11.63
2018-08-19T23:51:58.580Z,14.97
2018-08-19T23:54:28.425Z,13.93
2018-08-19T23:56:59.972Z,12.23
2018-08-19T23:59:35.299Z,11.40
